地図

経路データ

SID SEASON NUMBER BASIN SUBBASIN NAME ISO_TIME NATURE LAT LON WMO_WIND WMO_PRES WMO_AGENCY TRACK_TYPE DIST2LAND LANDFALL IFLAG USA_AGENCY USA_ATCF_ID USA_LAT USA_LON USA_RECORD USA_STATUS USA_WIND USA_PRES USA_SSHS USA_R34_NE USA_R34_SE USA_R34_SW USA_R34_NW USA_R50_NE USA_R50_SE USA_R50_SW USA_R50_NW USA_R64_NE USA_R64_SE USA_R64_SW USA_R64_NW USA_POCI USA_ROCI USA_RMW USA_EYE TOKYO_LAT TOKYO_LON TOKYO_GRADE TOKYO_WIND TOKYO_PRES TOKYO_R50_DIR TOKYO_R50_LONG TOKYO_R50_SHORT TOKYO_R30_DIR TOKYO_R30_LONG TOKYO_R30_SHORT TOKYO_LAND CMA_LAT CMA_LON CMA_CAT CMA_WIND CMA_PRES HKO_LAT HKO_LON HKO_CAT HKO_WIND HKO_PRES NEWDELHI_LAT NEWDELHI_LON NEWDELHI_GRADE NEWDELHI_WIND NEWDELHI_PRES NEWDELHI_CI NEWDELHI_DP NEWDELHI_POCI REUNION_LAT REUNION_LON REUNION_TYPE REUNION_WIND REUNION_PRES REUNION_TNUM REUNION_CI REUNION_RMW REUNION_R34_NE REUNION_R34_SE REUNION_R34_SW REUNION_R34_NW REUNION_R50_NE REUNION_R50_SE REUNION_R50_SW REUNION_R50_NW REUNION_R64_NE REUNION_R64_SE REUNION_R64_SW REUNION_R64_NW BOM_LAT BOM_LON BOM_TYPE BOM_WIND BOM_PRES BOM_TNUM BOM_CI BOM_RMW BOM_R34_NE BOM_R34_SE BOM_R34_SW BOM_R34_NW BOM_R50_NE BOM_R50_SE BOM_R50_SW BOM_R50_NW BOM_R64_NE BOM_R64_SE BOM_R64_SW BOM_R64_NW BOM_ROCI BOM_POCI BOM_EYE BOM_POS_METHOD BOM_PRES_METHOD NADI_LAT NADI_LON NADI_CAT NADI_WIND NADI_PRES WELLINGTON_LAT WELLINGTON_LON WELLINGTON_WIND WELLINGTON_PRES DS824_LAT DS824_LON DS824_STAGE DS824_WIND DS824_PRES TD9636_LAT TD9636_LON TD9636_STAGE TD9636_WIND TD9636_PRES TD9635_LAT TD9635_LON TD9635_WIND TD9635_PRES TD9635_ROCI NEUMANN_LAT NEUMANN_LON NEUMANN_CLASS NEUMANN_WIND NEUMANN_PRES MLC_LAT MLC_LON MLC_CLASS MLC_WIND MLC_PRES USA_GUST BOM_GUST BOM_GUST_PER REUNION_GUST REUNION_GUST_PER USA_SEAHGT USA_SEARAD_NE USA_SEARAD_SE USA_SEARAD_SW USA_SEARAD_NW STORM_SPEED STORM_DIR
1979218N16149 1979 65 WP MM NOT_NAMED 1979-08-06 00:00:00 TS 16.0000 149.000 main 2035 2035 __O___________ -1 16.0000 149.000 0 19 1004 16 351
1979218N16149 1979 65 WP MM NOT_NAMED 1979-08-06 03:00:00 TS 16.7826 148.861 main 2123 2123 __P___________ -1 16.7826 148.861 0 21 1004 16 353
1979218N16149 1979 65 WP MM NOT_NAMED 1979-08-06 06:00:00 TS 17.6000 148.800 main 2123 2041 __O___________ -1 17.6000 148.800 1 23 1004 17 0
1979218N16149 1979 65 WP MM NOT_NAMED 1979-08-06 09:00:00 TS 18.4650 148.857 main 2035 1953 __P___________ -1 18.4650 148.857 1 23 1004 17 3
1979218N16149 1979 65 WP MM NOT_NAMED 1979-08-06 12:00:00 TS 19.3000 148.900 main 1953 1883 __O___________ -1 19.3000 148.900 1 23 1004 16 0
1979218N16149 1979 65 WP MM NOT_NAMED 1979-08-06 15:00:00 TS 20.0521 148.855 main 1873 1799 __P___________ -1 20.0521 148.855 1 21 1004 14 349
1979218N16149 1979 65 WP MM NOT_NAMED 1979-08-06 18:00:00 TS 20.7000 148.600 main 1799 1726 __O___________ -1 20.7000 148.600 0 19 1004 14 328
1979218N16149 1979 65 WP MM NOT_NAMED 1979-08-06 21:00:00 TS 21.2449 148.062 main 1726 1640 __P___________ -1 21.2449 148.062 0 19 1004 16 310
1979218N16149 1979 65 WP MM NOT_NAMED 1979-08-07 00:00:00 TS 21.7000 147.300 main 1640 1566 __O___________ -1 21.7000 147.300 0 19 1004 17 299
1979218N16149 1979 65 WP MM NOT_NAMED 1979-08-07 03:00:00 TS 22.0851 146.436 main 1562 1490 __P___________ -1 22.0851 146.436 0 19 1004 19 296
1979218N16149 1979 65 WP MM NOT_NAMED 1979-08-07 06:00:00 TS 22.5000 145.500 main 1487 1404 __O___________ -1 22.5000 145.500 0 19 1004 20 300
1979218N16149 1979 65 WP MM NOT_NAMED 1979-08-07 09:00:00 TS 23.0776 144.563 main 1393 1302 __P___________ -1 23.0776 144.563 0 18 1005 20 306
1979218N16149 1979 65 WP MM NOT_NAMED 1979-08-07 12:00:00 TS 23.7000 143.700 main 1302 1229 __O___________ -1 23.7000 143.700 0 17 1006 19 309
1979218N16149 1979 65 WP MM NOT_NAMED 1979-08-07 15:00:00 TS 24.2420 142.982 main 1229 1147 __P___________ -1 24.2420 142.982 0 17 1006 16 313
1979218N16149 1979 65 WP MM NOT_NAMED 1979-08-07 18:00:00 TS 24.8000 142.400 main 1147 1068 __O___________ -1 24.8000 142.400 0 17 1006 16 321
1979218N16149 1979 65 WP MM NOT_NAMED 1979-08-07 21:00:00 TS 25.4723 141.890 main 1058 982 __P___________ -1 25.4723 141.890 0 17 1006 15 328
1979218N16149 1979 65 WP MM NOT_NAMED 1979-08-08 00:00:00 TS 26.1000 141.500 main 982 928 __O___________ -1 26.1000 141.500 0 17 1006 12 330
1979218N16149 1979 65 WP MM NOT_NAMED 1979-08-08 03:00:00 TS 26.5373 141.212 main 928 880 __P___________ -1 26.5373 141.212 0 17 1006 9 331
1979218N16149 1979 65 WP MM NOT_NAMED 1979-08-08 06:00:00 TS 26.9000 141.000 main 880 832 __O___________ -1 26.9000 141.000 0 17 1006 8 333
1979218N16149 1979 65 WP MM NOT_NAMED 1979-08-08 09:00:00 TS 27.2849 140.792 main 832 784 __P___________ -1 27.2849 140.792 0 17 1006 9 336
1979218N16149 1979 65 WP MM NOT_NAMED 1979-08-08 12:00:00 TS 27.7000 140.600 main 784 736 __O___________ -1 27.7000 140.600 0 17 1006 10 338
1979218N16149 1979 65 WP MM NOT_NAMED 1979-08-08 15:00:00 TS 28.1700 140.392 main 727 670 __P___________ -1 28.1700 140.392 0 17 1006 11 341
1979218N16149 1979 65 WP MM NOT_NAMED 1979-08-08 18:00:00 TS 28.7000 140.200 main 670 601 __O___________ -1 28.7000 140.200 0 17 1006 12 343
1979218N16149 1979 65 WP MM NOT_NAMED 1979-08-08 21:00:00 TS 29.3375 139.983 main 601 534 __P___________ -1 29.3375 139.983 0 17 1006 12 348
1979218N16149 1979 65 WP MM NOT_NAMED 1979-08-09 00:00:00 TS 29.9000 139.900 main 534 503 __O___________ -1 29.9000 139.900 0 17 1006 9 6
1979218N16149 1979 65 WP MM NOT_NAMED 1979-08-09 03:00:00 TS 30.2250 140.082 main 505 488 __P___________ -1 30.2250 140.082 0 17 1006 7 41
1979218N16149 1979 65 WP MM NOT_NAMED 1979-08-09 06:00:00 TS 30.4000 140.400 main 491 480 __O___________ -1 30.4000 140.400 0 17 1006 6 57
1979218N16149 1979 65 WP MM NOT_NAMED 1979-08-09 09:00:00 TS 30.5751 140.715 main 480 480 __P___________ -1 30.5751 140.715 0 17 1006 6 69
1979218N16149 1979 65 WP MM NOT_NAMED 1979-08-09 12:00:00 TS 30.6000 141.000 main 490 490 __O___________ -1 30.6000 141.000 0 17 1006 5 112
1979218N16149 1979 65 WP MM NOT_NAMED 1979-08-09 15:00:00 TS 30.3873 141.248 main 516 516 __P___________ -1 30.3873 141.248 0 17 1006 6 152
1979218N16149 1979 65 WP MM NOT_NAMED 1979-08-09 18:00:00 TS 30.1000 141.300 main 551 551 __O___________ -1 30.1000 141.300 0 17 1006 6 210
1979218N16149 1979 65 WP MM NOT_NAMED 1979-08-09 21:00:00 TS 29.8905 140.919 main 560 556 __P___________ -1 29.8905 140.919 0 17 1006 7 244
1979218N16149 1979 65 WP MM NOT_NAMED 1979-08-10 00:00:00 TS 29.8000 140.600 main 561 553 __O___________ -1 29.8000 140.600 0 17 1006 1 331
1979218N16149 1979 65 WP MM NOT_NAMED 1979-08-10 03:00:00 TS 29.9504 140.882 main 549 546 __P___________ -1 29.9504 140.882 0 17 1006 7 64
1979218N16149 1979 65 WP MM NOT_NAMED 1979-08-10 06:00:00 TS 30.1000 141.300 main 551 551 __O___________ -1 30.1000 141.300 0 17 1006 5 85
1979218N16149 1979 65 WP MM NOT_NAMED 1979-08-10 09:00:00 TS 29.9873 141.423 main 564 564 __P___________ -1 29.9873 141.423 0 17 1006 3 150
1979218N16149 1979 65 WP MM NOT_NAMED 1979-08-10 12:00:00 TS 29.8000 141.500 main 588 588 __O___________ -1 29.8000 141.500 0 17 1006 4 143
1979218N16149 1979 65 WP MM NOT_NAMED 1979-08-10 15:00:00 TS 29.6850 141.685 main 604 604 __P___________ -1 29.6850 141.685 0 17 1006 4 120
1979218N16149 1979 65 WP MM NOT_NAMED 1979-08-10 18:00:00 TS 29.6000 141.900 main 620 620 __O___________ -1 29.6000 141.900 0 17 1006 4 115
1979218N16149 1979 65 WP MM NOT_NAMED 1979-08-10 21:00:00 TS 29.5273 142.070 main 636 636 __P___________ -1 29.5273 142.070 0 17 1006 4 106
1979218N16149 1979 65 WP MM NOT_NAMED 1979-08-11 00:00:00 TS 29.5000 142.300 main 643 643 __O___________ -1 29.5000 142.300 0 17 1006 5 89
1979218N16149 1979 65 WP MM NOT_NAMED 1979-08-11 03:00:00 TS 29.5351 142.670 main 657 650 __P___________ -1 29.5351 142.670 0 17 1006 7 82
1979218N16149 1979 65 WP MM NOT_NAMED 1979-08-11 06:00:00 TS 29.6000 143.100 main 662 662 __O___________ -1 29.6000 143.100 0 17 1006 7 82
1979218N16149 1979 65 WP MM NOT_NAMED 1979-08-11 09:00:00 TS 29.6347 143.478 main 680 675 __P___________ -1 29.6347 143.478 0 17 1006 7 82
1979218N16149 1979 65 WP MM NOT_NAMED 1979-08-11 12:00:00 TS 29.7000 143.900 main 690 690 __O___________ -1 29.7000 143.900 0 17 1006 8 78
1979218N16149 1979 65 WP MM NOT_NAMED 1979-08-11 15:00:00 TS 29.8049 144.420 main 708 708 __P___________ -1 29.8049 144.420 0 17 1006 10 73
1979218N16149 1979 65 WP MM NOT_NAMED 1979-08-11 18:00:00 TS 30.0000 145.000 main 721 718 __O___________ -1 30.0000 145.000 0 17 1006 11 62
1979218N16149 1979 65 WP MM NOT_NAMED 1979-08-11 21:00:00 TS 30.3265 145.540 main 724 720 __P___________ -1 30.3265 145.540 0 17 1006 13 56
1979218N16149 1979 65 WP MM NOT_NAMED 1979-08-12 00:00:00 TS 30.7000 146.200 main 737 736 __O___________ -1 30.7000 146.200 0 17 1006 15 63
1979218N16149 1979 65 WP MM NOT_NAMED 1979-08-12 03:00:00 TS 31.0153 147.098 main 777 777 __P___________ -1 31.0153 147.098 0 17 1006 17 70
1979218N16149 1979 65 WP MM NOT_NAMED 1979-08-12 06:00:00 TS 31.3000 148.100 main 827 827 __O___________ -1 31.3000 148.100 0 17 1006 18 72
1979218N16149 1979 65 WP MM NOT_NAMED 1979-08-12 09:00:00 TS 31.5583 149.067 main 884 884 __P___________ -1 31.5583 149.067 0 17 1005 17 73
1979218N16149 1979 65 WP MM NOT_NAMED 1979-08-12 12:00:00 TS 31.8000 150.000 main 944 __O___________ -1 31.8000 150.000 0 17 1004 17 73

デジタル台風データ・検索

IBTrACS Databaseについて

本データベースは、米国NOAAが公開する1842年以降の世界の熱帯低気圧のベストトラックデータアーカイブInternational Best Track Archive for Climate Stewardship (IBTrACS)を、ウェブで閲覧しやすい形式に変換したものです。

最終更新日:2021-10-08